sensor_id;sensor_type;location;lat;lon;timestamp;P1;durP1;ratioP1;P2;durP2;ratioP2
69310;SDS011;56430;48.154;16.458;2022-09-09T00:01:22;1.92;;;0.20;;
69310;SDS011;56430;48.154;16.458;2022-09-09T00:03:59;3.85;;;0.28;;
69310;SDS011;56430;48.154;16.458;2022-09-09T00:06:30;2.60;;;0.30;;
69310;SDS011;56430;48.154;16.458;2022-09-09T00:09:00;1.50;;;0.20;;
69310;SDS011;56430;48.154;16.458;2022-09-09T00:11:32;1.33;;;0.17;;
69310;SDS011;56430;48.154;16.458;2022-09-09T00:14:03;2.85;;;0.40;;
69310;SDS011;56430;48.154;16.458;2022-09-09T00:16:39;1.88;;;0.30;;
69310;SDS011;56430;48.154;16.458;2022-09-09T00:19:12;1.30;;;0.20;;
69310;SDS011;56430;48.154;16.458;2022-09-09T00:21:49;2.00;;;0.30;;
69310;SDS011;56430;48.154;16.458;2022-09-09T00:24:23;1.52;;;0.20;;
69310;SDS011;56430;48.154;16.458;2022-09-09T00:26:55;1.25;;;0.20;;
69310;SDS011;56430;48.154;16.458;2022-09-09T00:29:25;2.20;;;0.20;;
69310;SDS011;56430;48.154;16.458;2022-09-09T00:32:00;1.73;;;0.13;;
69310;SDS011;56430;48.154;16.458;2022-09-09T00:34:39;1.60;;;0.50;;
69310;SDS011;56430;48.154;16.458;2022-09-09T00:37:09;2.20;;;0.20;;
69310;SDS011;56430;48.154;16.458;2022-09-09T00:39:36;1.58;;;0.20;;
69310;SDS011;56430;48.154;16.458;2022-09-09T00:42:10;3.22;;;0.30;;
69310;SDS011;56430;48.154;16.458;2022-09-09T00:44:44;1.60;;;0.20;;
69310;SDS011;56430;48.154;16.458;2022-09-09T00:47:26;4.03;;;0.30;;
69310;SDS011;56430;48.154;16.458;2022-09-09T00:50:15;1.08;;;0.10;;
69310;SDS011;56430;48.154;16.458;2022-09-09T00:52:54;1.67;;;0.30;;
69310;SDS011;56430;48.154;16.458;2022-09-09T00:55:27;2.10;;;0.30;;
69310;SDS011;56430;48.154;16.458;2022-09-09T00:58:00;1.95;;;0.38;;
69310;SDS011;56430;48.154;16.458;2022-09-09T01:00:27;1.83;;;0.20;;
69310;SDS011;56430;48.154;16.458;2022-09-09T01:03:05;2.20;;;0.30;;
69310;SDS011;56430;48.154;16.458;2022-09-09T01:05:44;1.40;;;0.28;;
69310;SDS011;56430;48.154;16.458;2022-09-09T01:08:17;2.10;;;0.20;;
69310;SDS011;56430;48.154;16.458;2022-09-09T01:10:55;2.45;;;0.30;;
69310;SDS011;56430;48.154;16.458;2022-09-09T01:13:24;1.10;;;0.10;;
69310;SDS011;56430;48.154;16.458;2022-09-09T01:15:52;1.10;;;0.20;;
69310;SDS011;56430;48.154;16.458;2022-09-09T01:18:21;1.08;;;0.17;;
69310;SDS011;56430;48.154;16.458;2022-09-09T01:20:51;1.10;;;0.20;;
69310;SDS011;56430;48.154;16.458;2022-09-09T01:23:28;2.63;;;0.15;;
69310;SDS011;56430;48.154;16.458;2022-09-09T01:26:14;1.30;;;0.20;;
69310;SDS011;56430;48.154;16.458;2022-09-09T01:28:45;1.92;;;0.20;;
69310;SDS011;56430;48.154;16.458;2022-09-09T01:31:15;1.50;;;0.20;;
69310;SDS011;56430;48.154;16.458;2022-09-09T01:33:44;1.45;;;0.20;;
69310;SDS011;56430;48.154;16.458;2022-09-09T01:36:12;1.25;;;0.22;;
69310;SDS011;56430;48.154;16.458;2022-09-09T01:38:42;1.77;;;0.30;;
69310;SDS011;56430;48.154;16.458;2022-09-09T01:41:09;2.25;;;0.28;;
69310;SDS011;56430;48.154;16.458;2022-09-09T01:43:37;1.30;;;0.20;;
69310;SDS011;56430;48.154;16.458;2022-09-09T01:46:04;1.67;;;0.30;;
69310;SDS011;56430;48.154;16.458;2022-09-09T01:48:32;1.50;;;0.20;;
69310;SDS011;56430;48.154;16.458;2022-09-09T01:50:59;1.57;;;0.27;;
69310;SDS011;56430;48.154;16.458;2022-09-09T01:53:26;1.00;;;0.13;;
69310;SDS011;56430;48.154;16.458;2022-09-09T01:55:59;2.30;;;0.22;;
69310;SDS011;56430;48.154;16.458;2022-09-09T01:58:34;1.80;;;0.30;;
69310;SDS011;56430;48.154;16.458;2022-09-09T02:01:14;2.85;;;0.30;;
69310;SDS011;56430;48.154;16.458;2022-09-09T02:03:45;2.17;;;0.30;;
69310;SDS011;56430;48.154;16.458;2022-09-09T02:06:21;1.20;;;0.20;;
69310;SDS011;56430;48.154;16.458;2022-09-09T02:08:54;1.63;;;0.22;;
69310;SDS011;56430;48.154;16.458;2022-09-09T02:11:23;1.33;;;0.25;;
69310;SDS011;56430;48.154;16.458;2022-09-09T02:13:54;2.65;;;0.30;;
69310;SDS011;56430;48.154;16.458;2022-09-09T02:16:24;2.53;;;0.30;;
69310;SDS011;56430;48.154;16.458;2022-09-09T02:18:55;2.97;;;0.28;;
69310;SDS011;56430;48.154;16.458;2022-09-09T02:21:24;1.55;;;0.22;;
69310;SDS011;56430;48.154;16.458;2022-09-09T02:23:54;2.50;;;0.30;;
69310;SDS011;56430;48.154;16.458;2022-09-09T02:26:22;2.85;;;0.50;;
69310;SDS011;56430;48.154;16.458;2022-09-09T02:28:50;1.17;;;0.20;;
69310;SDS011;56430;48.154;16.458;2022-09-09T02:31:21;1.35;;;0.20;;
69310;SDS011;56430;48.154;16.458;2022-09-09T02:33:51;1.40;;;0.25;;
69310;SDS011;56430;48.154;16.458;2022-09-09T02:36:20;3.70;;;0.40;;
69310;SDS011;56430;48.154;16.458;2022-09-09T02:38:50;2.30;;;0.40;;
69310;SDS011;56430;48.154;16.458;2022-09-09T02:41:19;2.70;;;0.30;;
69310;SDS011;56430;48.154;16.458;2022-09-09T02:43:48;2.50;;;0.65;;
69310;SDS011;56430;48.154;16.458;2022-09-09T02:46:22;4.00;;;0.50;;
69310;SDS011;56430;48.154;16.458;2022-09-09T02:48:58;1.95;;;0.40;;
69310;SDS011;56430;48.154;16.458;2022-09-09T02:51:29;2.25;;;0.38;;
69310;SDS011;56430;48.154;16.458;2022-09-09T02:54:04;3.43;;;0.50;;
69310;SDS011;56430;48.154;16.458;2022-09-09T02:56:36;1.83;;;0.30;;
69310;SDS011;56430;48.154;16.458;2022-09-09T02:59:06;1.50;;;0.28;;
69310;SDS011;56430;48.154;16.458;2022-09-09T03:01:35;2.00;;;0.30;;
69310;SDS011;56430;48.154;16.458;2022-09-09T03:04:02;2.72;;;0.32;;
69310;SDS011;56430;48.154;16.458;2022-09-09T03:06:31;1.57;;;0.40;;
69310;SDS011;56430;48.154;16.458;2022-09-09T03:08:58;1.85;;;0.47;;
69310;SDS011;56430;48.154;16.458;2022-09-09T03:11:27;3.28;;;0.60;;
69310;SDS011;56430;48.154;16.458;2022-09-09T03:13:54;3.38;;;0.50;;
69310;SDS011;56430;48.154;16.458;2022-09-09T03:16:22;2.20;;;0.50;;
69310;SDS011;56430;48.154;16.458;2022-09-09T03:18:51;2.67;;;0.40;;
69310;SDS011;56430;48.154;16.458;2022-09-09T03:21:18;2.72;;;0.30;;
69310;SDS011;56430;48.154;16.458;2022-09-09T03:23:46;2.25;;;0.40;;
69310;SDS011;56430;48.154;16.458;2022-09-09T03:26:13;1.70;;;0.40;;
69310;SDS011;56430;48.154;16.458;2022-09-09T03:28:41;1.73;;;0.40;;
69310;SDS011;56430;48.154;16.458;2022-09-09T03:31:10;2.57;;;0.40;;
69310;SDS011;56430;48.154;16.458;2022-09-09T03:33:37;1.92;;;0.40;;
69310;SDS011;56430;48.154;16.458;2022-09-09T03:36:08;3.65;;;0.60;;
69310;SDS011;56430;48.154;16.458;2022-09-09T03:38:36;3.78;;;0.40;;
69310;SDS011;56430;48.154;16.458;2022-09-09T03:41:03;2.83;;;0.40;;
69310;SDS011;56430;48.154;16.458;2022-09-09T03:43:31;4.43;;;0.70;;
69310;SDS011;56430;48.154;16.458;2022-09-09T03:45:58;2.60;;;0.40;;
69310;SDS011;56430;48.154;16.458;2022-09-09T03:48:25;2.10;;;0.50;;
69310;SDS011;56430;48.154;16.458;2022-09-09T03:50:53;5.45;;;0.40;;
69310;SDS011;56430;48.154;16.458;2022-09-09T03:53:24;1.55;;;0.30;;
69310;SDS011;56430;48.154;16.458;2022-09-09T03:55:52;2.00;;;0.50;;
69310;SDS011;56430;48.154;16.458;2022-09-09T03:58:21;1.70;;;0.30;;
69310;SDS011;56430;48.154;16.458;2022-09-09T04:00:53;3.28;;;0.70;;
69310;SDS011;56430;48.154;16.458;2022-09-09T04:03:21;2.78;;;0.40;;
69310;SDS011;56430;48.154;16.458;2022-09-09T04:05:50;2.10;;;0.38;;
69310;SDS011;56430;48.154;16.458;2022-09-09T04:08:17;2.97;;;0.43;;
69310;SDS011;56430;48.154;16.458;2022-09-09T04:10:46;2.50;;;0.50;;
69310;SDS011;56430;48.154;16.458;2022-09-09T04:13:13;3.13;;;0.52;;
69310;SDS011;56430;48.154;16.458;2022-09-09T04:15:44;2.90;;;0.40;;
69310;SDS011;56430;48.154;16.458;2022-09-09T04:18:17;2.35;;;0.50;;
69310;SDS011;56430;48.154;16.458;2022-09-09T04:20:45;3.40;;;0.50;;
69310;SDS011;56430;48.154;16.458;2022-09-09T04:23:13;2.20;;;0.50;;
69310;SDS011;56430;48.154;16.458;2022-09-09T04:25:43;2.55;;;0.80;;
69310;SDS011;56430;48.154;16.458;2022-09-09T04:31:32;4.50;;;1.27;;
69310;SDS011;56430;48.154;16.458;2022-09-09T04:33:59;3.30;;;1.00;;
69310;SDS011;56430;48.154;16.458;2022-09-09T04:36:30;7.15;;;0.88;;
69310;SDS011;56430;48.154;16.458;2022-09-09T04:38:58;5.32;;;1.10;;
69310;SDS011;56430;48.154;16.458;2022-09-09T04:41:27;6.60;;;0.90;;
69310;SDS011;56430;48.154;16.458;2022-09-09T04:43:54;7.10;;;1.20;;
69310;SDS011;56430;48.154;16.458;2022-09-09T04:46:21;5.27;;;1.33;;
69310;SDS011;56430;48.154;16.458;2022-09-09T04:48:50;2.85;;;0.80;;
69310;SDS011;56430;48.154;16.458;2022-09-09T04:51:18;4.05;;;1.10;;
69310;SDS011;56430;48.154;16.458;2022-09-09T04:53:45;2.10;;;0.77;;
69310;SDS011;56430;48.154;16.458;2022-09-09T04:56:15;4.70;;;0.73;;
69310;SDS011;56430;48.154;16.458;2022-09-09T04:58:43;5.43;;;1.10;;
69310;SDS011;56430;48.154;16.458;2022-09-09T05:01:11;8.10;;;0.85;;
69310;SDS011;56430;48.154;16.458;2022-09-09T05:03:39;5.18;;;0.70;;
69310;SDS011;56430;48.154;16.458;2022-09-09T05:06:09;2.45;;;0.50;;
69310;SDS011;56430;48.154;16.458;2022-09-09T05:08:38;5.65;;;0.60;;
69310;SDS011;56430;48.154;16.458;2022-09-09T05:11:12;4.53;;;0.80;;
69310;SDS011;56430;48.154;16.458;2022-09-09T05:13:41;2.78;;;0.60;;
69310;SDS011;56430;48.154;16.458;2022-09-09T05:16:08;2.22;;;0.70;;
69310;SDS011;56430;48.154;16.458;2022-09-09T05:18:36;2.55;;;0.68;;
69310;SDS011;56430;48.154;16.458;2022-09-09T05:21:04;3.65;;;0.70;;
69310;SDS011;56430;48.154;16.458;2022-09-09T05:23:33;2.53;;;0.50;;
69310;SDS011;56430;48.154;16.458;2022-09-09T05:26:00;5.18;;;1.00;;
69310;SDS011;56430;48.154;16.458;2022-09-09T05:28:28;4.15;;;0.80;;
69310;SDS011;56430;48.154;16.458;2022-09-09T05:30:56;7.05;;;1.33;;
69310;SDS011;56430;48.154;16.458;2022-09-09T05:33:24;3.85;;;0.50;;
69310;SDS011;56430;48.154;16.458;2022-09-09T05:35:56;3.47;;;0.90;;
69310;SDS011;56430;48.154;16.458;2022-09-09T05:38:24;2.70;;;0.60;;
69310;SDS011;56430;48.154;16.458;2022-09-09T05:40:53;5.43;;;0.82;;
69310;SDS011;56430;48.154;16.458;2022-09-09T05:43:21;1.92;;;0.55;;
69310;SDS011;56430;48.154;16.458;2022-09-09T05:45:58;2.65;;;0.70;;
69310;SDS011;56430;48.154;16.458;2022-09-09T05:48:27;2.17;;;0.50;;
69310;SDS011;56430;48.154;16.458;2022-09-09T05:50:56;2.60;;;0.77;;
69310;SDS011;56430;48.154;16.458;2022-09-09T05:53:23;6.70;;;1.02;;
69310;SDS011;56430;48.154;16.458;2022-09-09T05:55:50;4.70;;;0.80;;
69310;SDS011;56430;48.154;16.458;2022-09-09T05:58:27;3.25;;;0.65;;
69310;SDS011;56430;48.154;16.458;2022-09-09T06:00:59;2.70;;;0.77;;
69310;SDS011;56430;48.154;16.458;2022-09-09T06:03:27;3.80;;;0.98;;
69310;SDS011;56430;48.154;16.458;2022-09-09T06:05:57;2.75;;;0.90;;
69310;SDS011;56430;48.154;16.458;2022-09-09T06:08:26;2.83;;;0.93;;
69310;SDS011;56430;48.154;16.458;2022-09-09T06:10:53;3.78;;;1.15;;
69310;SDS011;56430;48.154;16.458;2022-09-09T06:13:29;2.60;;;0.87;;
69310;SDS011;56430;48.154;16.458;2022-09-09T06:15:57;2.83;;;0.90;;
69310;SDS011;56430;48.154;16.458;2022-09-09T06:18:25;3.03;;;0.93;;
69310;SDS011;56430;48.154;16.458;2022-09-09T06:20:53;3.03;;;1.00;;
69310;SDS011;56430;48.154;16.458;2022-09-09T06:23:21;3.47;;;1.33;;
69310;SDS011;56430;48.154;16.458;2022-09-09T06:25:48;3.90;;;1.17;;
69310;SDS011;56430;48.154;16.458;2022-09-09T06:28:17;7.10;;;0.98;;
69310;SDS011;56430;48.154;16.458;2022-09-09T06:30:44;4.57;;;1.08;;
69310;SDS011;56430;48.154;16.458;2022-09-09T06:33:12;4.38;;;1.00;;
69310;SDS011;56430;48.154;16.458;2022-09-09T06:35:40;9.32;;;1.10;;
69310;SDS011;56430;48.154;16.458;2022-09-09T06:38:07;2.40;;;0.53;;
69310;SDS011;56430;48.154;16.458;2022-09-09T06:40:35;3.47;;;0.60;;
69310;SDS011;56430;48.154;16.458;2022-09-09T06:43:02;2.53;;;0.68;;
69310;SDS011;56430;48.154;16.458;2022-09-09T06:45:30;2.70;;;0.63;;
69310;SDS011;56430;48.154;16.458;2022-09-09T06:47:58;4.78;;;0.70;;
69310;SDS011;56430;48.154;16.458;2022-09-09T06:50:25;3.53;;;0.60;;
69310;SDS011;56430;48.154;16.458;2022-09-09T06:52:52;4.38;;;0.60;;
69310;SDS011;56430;48.154;16.458;2022-09-09T06:55:19;7.65;;;1.02;;
69310;SDS011;56430;48.154;16.458;2022-09-09T06:57:47;4.00;;;0.70;;
69310;SDS011;56430;48.154;16.458;2022-09-09T07:00:14;4.32;;;0.80;;
69310;SDS011;56430;48.154;16.458;2022-09-09T07:02:43;4.83;;;0.90;;
69310;SDS011;56430;48.154;16.458;2022-09-09T07:05:11;3.28;;;1.00;;
69310;SDS011;56430;48.154;16.458;2022-09-09T07:07:38;10.10;;;1.25;;
69310;SDS011;56430;48.154;16.458;2022-09-09T07:10:05;6.90;;;1.40;;
69310;SDS011;56430;48.154;16.458;2022-09-09T07:12:33;3.45;;;1.38;;
69310;SDS011;56430;48.154;16.458;2022-09-09T07:15:00;6.13;;;1.40;;
69310;SDS011;56430;48.154;16.458;2022-09-09T07:17:27;3.75;;;1.27;;
69310;SDS011;56430;48.154;16.458;2022-09-09T07:19:56;5.60;;;1.30;;
69310;SDS011;56430;48.154;16.458;2022-09-09T07:22:23;5.70;;;1.00;;
69310;SDS011;56430;48.154;16.458;2022-09-09T07:24:50;5.45;;;0.93;;
69310;SDS011;56430;48.154;16.458;2022-09-09T07:27:17;3.43;;;1.10;;
69310;SDS011;56430;48.154;16.458;2022-09-09T07:29:44;5.37;;;0.97;;
69310;SDS011;56430;48.154;16.458;2022-09-09T07:32:12;7.45;;;1.08;;
69310;SDS011;56430;48.154;16.458;2022-09-09T07:34:39;2.97;;;1.00;;
69310;SDS011;56430;48.154;16.458;2022-09-09T07:37:07;4.28;;;1.20;;
69310;SDS011;56430;48.154;16.458;2022-09-09T07:39:37;6.20;;;2.47;;
69310;SDS011;56430;48.154;16.458;2022-09-09T07:42:04;5.10;;;1.75;;
69310;SDS011;56430;48.154;16.458;2022-09-09T07:44:32;4.75;;;2.45;;
69310;SDS011;56430;48.154;16.458;2022-09-09T07:47:00;4.72;;;1.98;;
69310;SDS011;56430;48.154;16.458;2022-09-09T07:49:28;6.30;;;2.42;;
69310;SDS011;56430;48.154;16.458;2022-09-09T07:51:55;3.23;;;2.03;;
69310;SDS011;56430;48.154;16.458;2022-09-09T07:54:23;3.67;;;2.20;;
69310;SDS011;56430;48.154;16.458;2022-09-09T07:56:51;5.53;;;2.10;;
69310;SDS011;56430;48.154;16.458;2022-09-09T07:59:19;6.05;;;2.28;;
69310;SDS011;56430;48.154;16.458;2022-09-09T08:01:47;2.92;;;2.10;;
69310;SDS011;56430;48.154;16.458;2022-09-09T08:04:16;6.47;;;2.40;;
69310;SDS011;56430;48.154;16.458;2022-09-09T08:06:45;8.32;;;2.10;;
69310;SDS011;56430;48.154;16.458;2022-09-09T08:09:13;4.75;;;1.38;;
69310;SDS011;56430;48.154;16.458;2022-09-09T08:11:43;4.60;;;1.50;;
69310;SDS011;56430;48.154;16.458;2022-09-09T08:14:11;6.03;;;2.13;;
69310;SDS011;56430;48.154;16.458;2022-09-09T08:16:39;4.67;;;2.27;;
69310;SDS011;56430;48.154;16.458;2022-09-09T08:19:08;4.07;;;2.10;;
69310;SDS011;56430;48.154;16.458;2022-09-09T08:21:36;4.82;;;2.00;;
69310;SDS011;56430;48.154;16.458;2022-09-09T08:24:04;3.20;;;1.63;;
69310;SDS011;56430;48.154;16.458;2022-09-09T08:26:32;5.45;;;2.08;;
69310;SDS011;56430;48.154;16.458;2022-09-09T08:29:02;4.53;;;1.73;;
69310;SDS011;56430;48.154;16.458;2022-09-09T08:31:31;5.38;;;1.48;;
69310;SDS011;56430;48.154;16.458;2022-09-09T08:33:59;5.40;;;1.98;;
69310;SDS011;56430;48.154;16.458;2022-09-09T08:36:32;5.40;;;1.83;;
69310;SDS011;56430;48.154;16.458;2022-09-09T08:39:00;3.20;;;1.52;;
69310;SDS011;56430;48.154;16.458;2022-09-09T08:41:40;3.67;;;1.63;;
69310;SDS011;56430;48.154;16.458;2022-09-09T08:44:14;3.43;;;2.03;;
69310;SDS011;56430;48.154;16.458;2022-09-09T08:46:46;4.50;;;2.25;;
69310;SDS011;56430;48.154;16.458;2022-09-09T08:49:36;3.60;;;2.30;;
69310;SDS011;56430;48.154;16.458;2022-09-09T08:52:14;4.72;;;3.15;;
69310;SDS011;56430;48.154;16.458;2022-09-09T08:54:44;5.07;;;2.47;;
69310;SDS011;56430;48.154;16.458;2022-09-09T08:57:13;3.00;;;2.40;;
69310;SDS011;56430;48.154;16.458;2022-09-09T08:59:43;3.90;;;2.72;;
69310;SDS011;56430;48.154;16.458;2022-09-09T09:02:14;3.13;;;2.75;;
69310;SDS011;56430;48.154;16.458;2022-09-09T09:04:49;7.05;;;3.03;;
69310;SDS011;56430;48.154;16.458;2022-09-09T09:07:25;6.07;;;3.10;;
69310;SDS011;56430;48.154;16.458;2022-09-09T09:10:01;4.10;;;3.57;;
69310;SDS011;56430;48.154;16.458;2022-09-09T09:12:32;4.30;;;3.42;;
69310;SDS011;56430;48.154;16.458;2022-09-09T09:15:07;5.05;;;3.58;;
69310;SDS011;56430;48.154;16.458;2022-09-09T09:17:38;4.18;;;3.38;;
69310;SDS011;56430;48.154;16.458;2022-09-09T09:20:05;7.78;;;3.50;;
69310;SDS011;56430;48.154;16.458;2022-09-09T09:22:39;8.52;;;4.30;;
69310;SDS011;56430;48.154;16.458;2022-09-09T09:25:11;13.38;;;3.90;;
69310;SDS011;56430;48.154;16.458;2022-09-09T09:27:44;9.68;;;3.63;;
69310;SDS011;56430;48.154;16.458;2022-09-09T09:30:18;6.00;;;3.33;;
69310;SDS011;56430;48.154;16.458;2022-09-09T09:32:51;6.40;;;2.20;;
69310;SDS011;56430;48.154;16.458;2022-09-09T09:35:20;4.83;;;2.73;;
69310;SDS011;56430;48.154;16.458;2022-09-09T09:37:47;4.80;;;2.22;;
69310;SDS011;56430;48.154;16.458;2022-09-09T09:40:15;5.72;;;2.45;;
69310;SDS011;56430;48.154;16.458;2022-09-09T09:42:51;3.30;;;2.20;;
69310;SDS011;56430;48.154;16.458;2022-09-09T09:45:27;2.85;;;2.00;;
69310;SDS011;56430;48.154;16.458;2022-09-09T09:47:57;2.90;;;2.25;;
69310;SDS011;56430;48.154;16.458;2022-09-09T09:50:29;3.25;;;1.88;;
69310;SDS011;56430;48.154;16.458;2022-09-09T09:52:57;3.72;;;2.38;;
69310;SDS011;56430;48.154;16.458;2022-09-09T09:55:26;5.40;;;2.38;;
69310;SDS011;56430;48.154;16.458;2022-09-09T09:58:00;4.13;;;2.10;;
69310;SDS011;56430;48.154;16.458;2022-09-09T10:00:29;4.13;;;2.90;;
69310;SDS011;56430;48.154;16.458;2022-09-09T10:02:57;3.45;;;2.22;;
69310;SDS011;56430;48.154;16.458;2022-09-09T10:05:27;7.93;;;2.22;;
69310;SDS011;56430;48.154;16.458;2022-09-09T10:08:02;3.67;;;2.40;;
69310;SDS011;56430;48.154;16.458;2022-09-09T10:10:36;4.22;;;2.33;;
69310;SDS011;56430;48.154;16.458;2022-09-09T10:13:10;3.75;;;2.10;;
69310;SDS011;56430;48.154;16.458;2022-09-09T10:15:43;3.35;;;2.17;;
69310;SDS011;56430;48.154;16.458;2022-09-09T10:18:38;6.10;;;4.90;;
69310;SDS011;56430;48.154;16.458;2022-09-09T10:21:13;4.32;;;2.95;;
69310;SDS011;56430;48.154;16.458;2022-09-09T10:23:56;3.90;;;2.00;;
69310;SDS011;56430;48.154;16.458;2022-09-09T10:26:34;5.10;;;2.20;;
69310;SDS011;56430;48.154;16.458;2022-09-09T10:29:09;3.40;;;1.80;;
69310;SDS011;56430;48.154;16.458;2022-09-09T10:31:48;3.05;;;2.17;;
69310;SDS011;56430;48.154;16.458;2022-09-09T10:34:25;3.72;;;1.67;;
69310;SDS011;56430;48.154;16.458;2022-09-09T10:37:03;9.38;;;1.70;;
69310;SDS011;56430;48.154;16.458;2022-09-09T10:39:51;10.00;;;1.27;;
69310;SDS011;56430;48.154;16.458;2022-09-09T10:42:26;7.10;;;1.27;;
69310;SDS011;56430;48.154;16.458;2022-09-09T10:44:59;6.85;;;1.55;;
69310;SDS011;56430;48.154;16.458;2022-09-09T10:47:41;3.20;;;1.20;;
69310;SDS011;56430;48.154;16.458;2022-09-09T10:50:24;4.07;;;1.20;;
69310;SDS011;56430;48.154;16.458;2022-09-09T10:52:59;6.30;;;1.30;;
69310;SDS011;56430;48.154;16.458;2022-09-09T10:55:33;3.35;;;1.10;;
69310;SDS011;56430;48.154;16.458;2022-09-09T10:58:02;3.42;;;1.17;;
69310;SDS011;56430;48.154;16.458;2022-09-09T11:00:36;4.80;;;1.60;;
69310;SDS011;56430;48.154;16.458;2022-09-09T11:03:10;6.03;;;1.58;;
69310;SDS011;56430;48.154;16.458;2022-09-09T11:05:43;3.95;;;1.50;;
69310;SDS011;56430;48.154;16.458;2022-09-09T11:08:13;3.00;;;1.20;;
69310;SDS011;56430;48.154;16.458;2022-09-09T11:10:43;2.63;;;1.10;;
69310;SDS011;56430;48.154;16.458;2022-09-09T11:13:14;4.55;;;1.40;;
69310;SDS011;56430;48.154;16.458;2022-09-09T11:15:45;2.73;;;1.20;;
69310;SDS011;56430;48.154;16.458;2022-09-09T11:18:17;5.30;;;1.50;;
69310;SDS011;56430;48.154;16.458;2022-09-09T11:20:47;3.35;;;1.20;;
69310;SDS011;56430;48.154;16.458;2022-09-09T11:23:17;1.90;;;0.88;;
69310;SDS011;56430;48.154;16.458;2022-09-09T11:25:47;3.33;;;0.98;;
69310;SDS011;56430;48.154;16.458;2022-09-09T11:28:23;2.90;;;0.73;;
69310;SDS011;56430;48.154;16.458;2022-09-09T11:31:00;2.17;;;0.93;;
69310;SDS011;56430;48.154;16.458;2022-09-09T11:36:32;2.55;;;1.13;;
69310;SDS011;56430;48.154;16.458;2022-09-09T11:39:09;3.03;;;1.10;;
69310;SDS011;56430;48.154;16.458;2022-09-09T11:41:50;3.27;;;1.13;;
69310;SDS011;56430;48.154;16.458;2022-09-09T11:44:17;2.83;;;1.00;;
69310;SDS011;56430;48.154;16.458;2022-09-09T11:46:48;2.47;;;0.70;;
69310;SDS011;56430;48.154;16.458;2022-09-09T11:49:26;2.17;;;0.90;;
69310;SDS011;56430;48.154;16.458;2022-09-09T11:51:57;4.18;;;0.70;;
69310;SDS011;56430;48.154;16.458;2022-09-09T11:54:28;2.67;;;0.93;;
69310;SDS011;56430;48.154;16.458;2022-09-09T11:56:56;2.33;;;1.20;;
69310;SDS011;56430;48.154;16.458;2022-09-09T11:59:24;5.10;;;0.77;;
69310;SDS011;56430;48.154;16.458;2022-09-09T12:01:54;4.05;;;0.90;;
69310;SDS011;56430;48.154;16.458;2022-09-09T12:04:34;2.83;;;1.08;;
69310;SDS011;56430;48.154;16.458;2022-09-09T12:07:04;4.03;;;0.80;;
69310;SDS011;56430;48.154;16.458;2022-09-09T12:09:43;4.30;;;1.00;;
69310;SDS011;56430;48.154;16.458;2022-09-09T12:12:28;2.42;;;0.90;;
69310;SDS011;56430;48.154;16.458;2022-09-09T12:14:59;2.80;;;1.20;;
69310;SDS011;56430;48.154;16.458;2022-09-09T12:17:28;3.35;;;1.20;;
69310;SDS011;56430;48.154;16.458;2022-09-09T12:20:01;2.92;;;0.90;;
69310;SDS011;56430;48.154;16.458;2022-09-09T12:22:35;3.88;;;1.13;;
69310;SDS011;56430;48.154;16.458;2022-09-09T12:25:09;1.90;;;0.82;;
69310;SDS011;56430;48.154;16.458;2022-09-09T12:27:47;2.00;;;0.90;;
69310;SDS011;56430;48.154;16.458;2022-09-09T12:30:23;2.17;;;1.00;;
69310;SDS011;56430;48.154;16.458;2022-09-09T12:32:59;2.53;;;1.10;;
69310;SDS011;56430;48.154;16.458;2022-09-09T12:35:30;2.23;;;1.00;;
69310;SDS011;56430;48.154;16.458;2022-09-09T12:38:00;2.08;;;0.75;;
69310;SDS011;56430;48.154;16.458;2022-09-09T12:40:29;2.28;;;1.00;;
69310;SDS011;56430;48.154;16.458;2022-09-09T12:43:01;4.32;;;1.10;;
69310;SDS011;56430;48.154;16.458;2022-09-09T12:45:29;3.13;;;1.00;;
69310;SDS011;56430;48.154;16.458;2022-09-09T12:47:58;3.42;;;0.90;;
69310;SDS011;56430;48.154;16.458;2022-09-09T12:50:28;7.03;;;1.30;;
69310;SDS011;56430;48.154;16.458;2022-09-09T12:52:58;3.45;;;0.82;;
69310;SDS011;56430;48.154;16.458;2022-09-09T12:55:28;2.40;;;0.70;;
69310;SDS011;56430;48.154;16.458;2022-09-09T12:57:59;2.30;;;0.70;;
69310;SDS011;56430;48.154;16.458;2022-09-09T13:00:30;2.80;;;0.90;;
69310;SDS011;56430;48.154;16.458;2022-09-09T13:02:58;2.60;;;0.70;;
69310;SDS011;56430;48.154;16.458;2022-09-09T13:05:27;4.05;;;2.17;;
69310;SDS011;56430;48.154;16.458;2022-09-09T13:08:02;4.63;;;2.20;;
69310;SDS011;56430;48.154;16.458;2022-09-09T13:10:31;2.08;;;0.80;;
69310;SDS011;56430;48.154;16.458;2022-09-09T13:13:00;3.47;;;0.70;;
69310;SDS011;56430;48.154;16.458;2022-09-09T13:15:28;3.55;;;0.60;;
69310;SDS011;56430;48.154;16.458;2022-09-09T13:17:57;1.83;;;0.70;;
69310;SDS011;56430;48.154;16.458;2022-09-09T13:20:26;4.43;;;0.40;;
69310;SDS011;56430;48.154;16.458;2022-09-09T13:22:54;2.60;;;0.67;;
69310;SDS011;56430;48.154;16.458;2022-09-09T13:25:24;3.43;;;0.70;;
69310;SDS011;56430;48.154;16.458;2022-09-09T13:27:54;2.67;;;0.73;;
69310;SDS011;56430;48.154;16.458;2022-09-09T13:30:24;1.80;;;0.70;;
69310;SDS011;56430;48.154;16.458;2022-09-09T13:33:00;2.72;;;0.68;;
69310;SDS011;56430;48.154;16.458;2022-09-09T13:35:28;3.45;;;0.43;;
69310;SDS011;56430;48.154;16.458;2022-09-09T13:37:55;4.43;;;0.70;;
69310;SDS011;56430;48.154;16.458;2022-09-09T13:40:25;2.72;;;0.50;;
69310;SDS011;56430;48.154;16.458;2022-09-09T13:42:54;3.13;;;0.65;;
69310;SDS011;56430;48.154;16.458;2022-09-09T13:45:22;2.55;;;0.70;;
69310;SDS011;56430;48.154;16.458;2022-09-09T13:47:52;2.40;;;0.60;;
69310;SDS011;56430;48.154;16.458;2022-09-09T13:50:21;3.03;;;0.80;;
69310;SDS011;56430;48.154;16.458;2022-09-09T13:52:49;3.78;;;0.60;;
69310;SDS011;56430;48.154;16.458;2022-09-09T13:55:18;3.65;;;0.40;;
69310;SDS011;56430;48.154;16.458;2022-09-09T13:57:51;3.25;;;0.70;;
69310;SDS011;56430;48.154;16.458;2022-09-09T14:00:19;9.38;;;3.65;;
69310;SDS011;56430;48.154;16.458;2022-09-09T14:02:47;10.15;;;2.25;;
69310;SDS011;56430;48.154;16.458;2022-09-09T14:05:14;3.45;;;0.90;;
69310;SDS011;56430;48.154;16.458;2022-09-09T14:07:42;7.78;;;1.65;;
69310;SDS011;56430;48.154;16.458;2022-09-09T14:10:10;7.20;;;2.83;;
69310;SDS011;56430;48.154;16.458;2022-09-09T14:12:38;5.40;;;1.20;;
69310;SDS011;56430;48.154;16.458;2022-09-09T14:15:07;3.20;;;1.30;;
69310;SDS011;56430;48.154;16.458;2022-09-09T14:17:36;6.43;;;0.68;;
69310;SDS011;56430;48.154;16.458;2022-09-09T14:20:03;3.08;;;0.68;;
69310;SDS011;56430;48.154;16.458;2022-09-09T14:22:33;4.55;;;0.80;;
69310;SDS011;56430;48.154;16.458;2022-09-09T14:25:00;2.22;;;0.52;;
69310;SDS011;56430;48.154;16.458;2022-09-09T14:27:28;3.20;;;0.40;;
69310;SDS011;56430;48.154;16.458;2022-09-09T14:29:55;4.43;;;0.55;;
69310;SDS011;56430;48.154;16.458;2022-09-09T14:32:24;2.33;;;0.40;;
69310;SDS011;56430;48.154;16.458;2022-09-09T14:34:51;2.00;;;0.30;;
69310;SDS011;56430;48.154;16.458;2022-09-09T14:37:18;2.17;;;0.40;;
69310;SDS011;56430;48.154;16.458;2022-09-09T14:39:46;3.13;;;0.70;;
69310;SDS011;56430;48.154;16.458;2022-09-09T14:42:15;3.97;;;0.57;;
69310;SDS011;56430;48.154;16.458;2022-09-09T14:44:43;3.58;;;0.52;;
69310;SDS011;56430;48.154;16.458;2022-09-09T14:47:10;2.33;;;0.40;;
69310;SDS011;56430;48.154;16.458;2022-09-09T14:49:38;2.25;;;0.43;;
69310;SDS011;56430;48.154;16.458;2022-09-09T14:52:06;1.98;;;0.30;;
69310;SDS011;56430;48.154;16.458;2022-09-09T14:54:34;1.50;;;0.20;;
69310;SDS011;56430;48.154;16.458;2022-09-09T14:57:01;4.70;;;0.60;;
69310;SDS011;56430;48.154;16.458;2022-09-09T14:59:29;5.72;;;0.75;;